sensor_id;sensor_type;location;lat;lon;timestamp;P1;durP1;ratioP1;P2;durP2;ratioP2
58774;SDS011;44545;47.480;19.024;2024-02-21T04:24:06;7.72;;;1.30;;
58774;SDS011;44545;47.480;19.024;2024-02-21T04:27:09;1.05;;;0.70;;
58774;SDS011;44545;47.480;19.024;2024-02-21T04:30:11;2.53;;;1.87;;
58774;SDS011;44545;47.480;19.024;2024-02-21T04:33:14;3.17;;;1.62;;
58774;SDS011;44545;47.480;19.024;2024-02-21T04:36:16;8.23;;;1.20;;
58774;SDS011;44545;47.480;19.024;2024-02-21T04:39:18;2.50;;;1.27;;
58774;SDS011;44545;47.480;19.024;2024-02-21T04:42:20;2.60;;;1.83;;
58774;SDS011;44545;47.480;19.024;2024-02-21T04:45:23;2.60;;;1.75;;
58774;SDS011;44545;47.480;19.024;2024-02-21T04:48:25;8.55;;;1.45;;
58774;SDS011;44545;47.480;19.024;2024-02-21T04:51:28;1.75;;;1.45;;
58774;SDS011;44545;47.480;19.024;2024-02-21T04:54:30;0.62;;;0.62;;
58774;SDS011;44545;47.480;19.024;2024-02-21T04:57:33;0.85;;;0.85;;
58774;SDS011;44545;47.480;19.024;2024-02-21T05:00:35;1.73;;;0.82;;
58774;SDS011;44545;47.480;19.024;2024-02-21T05:03:38;2.97;;;1.70;;
58774;SDS011;44545;47.480;19.024;2024-02-21T05:06:40;0.80;;;0.80;;
58774;SDS011;44545;47.480;19.024;2024-02-21T05:09:46;0.80;;;0.80;;
58774;SDS011;44545;47.480;19.024;2024-02-21T05:12:48;1.05;;;0.73;;
58774;SDS011;44545;47.480;19.024;2024-02-21T05:15:52;0.20;;;0.20;;
58774;SDS011;44545;47.480;19.024;2024-02-21T05:18:54;1.73;;;1.20;;
58774;SDS011;44545;47.480;19.024;2024-02-21T05:21:58;3.22;;;1.33;;
58774;SDS011;44545;47.480;19.024;2024-02-21T05:25:01;1.30;;;1.20;;
58774;SDS011;44545;47.480;19.024;2024-02-21T05:28:03;1.02;;;0.93;;
58774;SDS011;44545;47.480;19.024;2024-02-21T05:31:08;2.12;;;1.92;;
58774;SDS011;44545;47.480;19.024;2024-02-21T05:34:11;2.25;;;1.60;;
58774;SDS011;44545;47.480;19.024;2024-02-21T05:37:13;5.72;;;1.25;;
58774;SDS011;44545;47.480;19.024;2024-02-21T05:40:16;1.45;;;1.25;;
58774;SDS011;44545;47.480;19.024;2024-02-21T05:43:18;1.60;;;1.15;;
58774;SDS011;44545;47.480;19.024;2024-02-21T05:46:21;1.55;;;0.82;;
58774;SDS011;44545;47.480;19.024;2024-02-21T05:49:23;1.15;;;0.70;;
58774;SDS011;44545;47.480;19.024;2024-02-21T05:52:26;1.45;;;1.10;;
58774;SDS011;44545;47.480;19.024;2024-02-21T05:55:28;2.47;;;1.27;;
58774;SDS011;44545;47.480;19.024;2024-02-21T05:58:31;0.82;;;0.60;;
58774;SDS011;44545;47.480;19.024;2024-02-21T06:01:33;2.10;;;0.93;;
58774;SDS011;44545;47.480;19.024;2024-02-21T06:04:36;1.17;;;1.08;;
58774;SDS011;44545;47.480;19.024;2024-02-21T06:07:39;1.67;;;1.08;;
58774;SDS011;44545;47.480;19.024;2024-02-21T06:10:41;0.43;;;0.43;;
58774;SDS011;44545;47.480;19.024;2024-02-21T06:13:43;0.80;;;0.60;;
58774;SDS011;44545;47.480;19.024;2024-02-21T06:16:46;0.60;;;0.60;;
58774;SDS011;44545;47.480;19.024;2024-02-21T06:19:48;0.82;;;0.68;;
58774;SDS011;44545;47.480;19.024;2024-02-21T06:22:51;0.65;;;0.62;;
58774;SDS011;44545;47.480;19.024;2024-02-21T06:25:53;0.60;;;0.60;;
58774;SDS011;44545;47.480;19.024;2024-02-21T06:28:56;1.02;;;0.70;;
58774;SDS011;44545;47.480;19.024;2024-02-21T06:31:59;1.75;;;1.10;;
58774;SDS011;44545;47.480;19.024;2024-02-21T06:35:02;0.43;;;0.43;;
58774;SDS011;44545;47.480;19.024;2024-02-21T06:38:04;2.30;;;0.73;;
58774;SDS011;44545;47.480;19.024;2024-02-21T06:41:14;2.05;;;1.30;;
58774;SDS011;44545;47.480;19.024;2024-02-21T06:44:18;1.52;;;1.15;;
58774;SDS011;44545;47.480;19.024;2024-02-21T06:47:20;6.55;;;1.95;;
58774;SDS011;44545;47.480;19.024;2024-02-21T06:50:22;5.40;;;1.77;;
58774;SDS011;44545;47.480;19.024;2024-02-21T06:53:25;11.07;;;1.50;;
58774;SDS011;44545;47.480;19.024;2024-02-21T06:56:27;2.62;;;1.10;;
58774;SDS011;44545;47.480;19.024;2024-02-21T06:59:33;0.62;;;0.62;;
58774;SDS011;44545;47.480;19.024;2024-02-21T07:02:35;3.00;;;2.10;;
58774;SDS011;44545;47.480;19.024;2024-02-21T07:05:37;1.55;;;1.37;;
58774;SDS011;44545;47.480;19.024;2024-02-21T07:08:40;2.75;;;1.25;;
58774;SDS011;44545;47.480;19.024;2024-02-21T07:11:43;1.73;;;1.52;;
58774;SDS011;44545;47.480;19.024;2024-02-21T07:14:45;1.50;;;1.05;;
58774;SDS011;44545;47.480;19.024;2024-02-21T07:17:48;1.80;;;0.95;;
58774;SDS011;44545;47.480;19.024;2024-02-21T07:20:50;1.17;;;0.93;;
58774;SDS011;44545;47.480;19.024;2024-02-21T07:23:53;2.10;;;0.93;;
58774;SDS011;44545;47.480;19.024;2024-02-21T07:26:56;1.48;;;1.23;;
58774;SDS011;44545;47.480;19.024;2024-02-21T07:29:58;4.35;;;1.92;;
58774;SDS011;44545;47.480;19.024;2024-02-21T07:33:02;2.65;;;1.27;;
58774;SDS011;44545;47.480;19.024;2024-02-21T07:36:09;1.48;;;0.90;;
58774;SDS011;44545;47.480;19.024;2024-02-21T07:39:12;7.25;;;1.00;;
58774;SDS011;44545;47.480;19.024;2024-02-21T07:42:15;2.28;;;1.12;;
58774;SDS011;44545;47.480;19.024;2024-02-21T07:45:17;1.87;;;1.08;;
58774;SDS011;44545;47.480;19.024;2024-02-21T07:48:26;2.65;;;1.40;;
58774;SDS011;44545;47.480;19.024;2024-02-21T07:51:28;1.23;;;0.95;;
58774;SDS011;44545;47.480;19.024;2024-02-21T07:54:31;2.28;;;1.12;;
58774;SDS011;44545;47.480;19.024;2024-02-21T07:57:34;0.95;;;0.80;;
58774;SDS011;44545;47.480;19.024;2024-02-21T08:00:36;0.68;;;0.50;;
58774;SDS011;44545;47.480;19.024;2024-02-21T08:03:40;6.22;;;1.30;;
58774;SDS011;44545;47.480;19.024;2024-02-21T08:06:44;0.73;;;0.55;;
58774;SDS011;44545;47.480;19.024;2024-02-21T08:09:47;2.40;;;1.15;;
58774;SDS011;44545;47.480;19.024;2024-02-21T08:12:49;3.75;;;2.20;;
58774;SDS011;44545;47.480;19.024;2024-02-21T08:15:52;5.05;;;0.85;;
58774;SDS011;44545;47.480;19.024;2024-02-21T08:18:54;2.70;;;0.90;;
58774;SDS011;44545;47.480;19.024;2024-02-21T08:21:57;0.98;;;0.85;;
58774;SDS011;44545;47.480;19.024;2024-02-21T08:24:59;1.65;;;0.85;;
58774;SDS011;44545;47.480;19.024;2024-02-21T08:28:01;11.52;;;1.37;;
58774;SDS011;44545;47.480;19.024;2024-02-21T08:31:04;3.00;;;1.10;;
58774;SDS011;44545;47.480;19.024;2024-02-21T08:34:06;4.28;;;1.08;;
58774;SDS011;44545;47.480;19.024;2024-02-21T08:37:09;6.45;;;1.87;;
58774;SDS011;44545;47.480;19.024;2024-02-21T08:40:13;3.10;;;1.20;;
58774;SDS011;44545;47.480;19.024;2024-02-21T08:43:19;1.20;;;0.85;;
58774;SDS011;44545;47.480;19.024;2024-02-21T08:46:21;3.25;;;0.90;;
58774;SDS011;44545;47.480;19.024;2024-02-21T08:49:26;1.52;;;0.68;;
58774;SDS011;44545;47.480;19.024;2024-02-21T08:52:36;1.90;;;0.68;;
58774;SDS011;44545;47.480;19.024;2024-02-21T08:55:38;3.40;;;1.30;;
58774;SDS011;44545;47.480;19.024;2024-02-21T08:58:41;1.73;;;1.15;;
58774;SDS011;44545;47.480;19.024;2024-02-21T09:01:43;1.20;;;0.82;;
58774;SDS011;44545;47.480;19.024;2024-02-21T09:04:46;0.65;;;0.55;;
58774;SDS011;44545;47.480;19.024;2024-02-21T09:07:48;5.43;;;1.40;;
58774;SDS011;44545;47.480;19.024;2024-02-21T09:10:51;2.17;;;1.10;;
58774;SDS011;44545;47.480;19.024;2024-02-21T09:13:54;5.50;;;1.27;;
58774;SDS011;44545;47.480;19.024;2024-02-21T09:16:57;1.23;;;0.62;;
58774;SDS011;44545;47.480;19.024;2024-02-21T09:19:59;3.92;;;1.42;;
58774;SDS011;44545;47.480;19.024;2024-02-21T09:23:05;5.40;;;1.17;;
58774;SDS011;44545;47.480;19.024;2024-02-21T09:26:07;4.07;;;1.23;;
58774;SDS011;44545;47.480;19.024;2024-02-21T09:29:12;1.00;;;0.80;;
58774;SDS011;44545;47.480;19.024;2024-02-21T09:32:15;2.70;;;1.40;;
58774;SDS011;44545;47.480;19.024;2024-02-21T09:35:17;2.03;;;1.05;;
58774;SDS011;44545;47.480;19.024;2024-02-21T09:38:20;2.75;;;0.90;;
58774;SDS011;44545;47.480;19.024;2024-02-21T09:41:26;2.58;;;1.40;;
58774;SDS011;44545;47.480;19.024;2024-02-21T09:51:11;4.53;;;0.55;;
58774;SDS011;44545;47.480;19.024;2024-02-21T09:54:16;5.15;;;1.77;;
58774;SDS011;44545;47.480;19.024;2024-02-21T09:57:20;2.78;;;1.50;;
58774;SDS011;44545;47.480;19.024;2024-02-21T10:00:25;2.53;;;1.02;;
58774;SDS011;44545;47.480;19.024;2024-02-21T10:03:27;2.10;;;0.98;;
58774;SDS011;44545;47.480;19.024;2024-02-21T10:06:29;2.05;;;1.00;;
58774;SDS011;44545;47.480;19.024;2024-02-21T10:09:32;2.37;;;1.12;;
58774;SDS011;44545;47.480;19.024;2024-02-21T10:12:35;2.90;;;1.42;;
58774;SDS011;44545;47.480;19.024;2024-02-21T10:15:37;1.62;;;1.10;;
58774;SDS011;44545;47.480;19.024;2024-02-21T10:18:40;0.68;;;0.52;;
58774;SDS011;44545;47.480;19.024;2024-02-21T10:21:43;1.95;;;0.57;;
58774;SDS011;44545;47.480;19.024;2024-02-21T10:24:46;1.85;;;0.90;;
58774;SDS011;44545;47.480;19.024;2024-02-21T10:27:49;2.47;;;1.42;;
58774;SDS011;44545;47.480;19.024;2024-02-21T10:30:53;3.28;;;1.12;;
58774;SDS011;44545;47.480;19.024;2024-02-21T10:33:59;5.80;;;1.23;;
58774;SDS011;44545;47.480;19.024;2024-02-21T10:37:11;4.50;;;1.45;;
58774;SDS011;44545;47.480;19.024;2024-02-21T10:40:13;2.08;;;1.15;;
58774;SDS011;44545;47.480;19.024;2024-02-21T10:43:16;1.98;;;1.17;;
58774;SDS011;44545;47.480;19.024;2024-02-21T10:46:21;1.55;;;0.98;;
58774;SDS011;44545;47.480;19.024;2024-02-21T10:49:25;3.15;;;1.08;;
58774;SDS011;44545;47.480;19.024;2024-02-21T10:52:37;1.75;;;1.10;;
58774;SDS011;44545;47.480;19.024;2024-02-21T10:55:44;15.65;;;1.70;;
58774;SDS011;44545;47.480;19.024;2024-02-21T10:58:57;9.77;;;1.42;;
58774;SDS011;44545;47.480;19.024;2024-02-21T11:02:02;1.98;;;1.12;;
58774;SDS011;44545;47.480;19.024;2024-02-21T11:05:05;1.30;;;0.82;;
58774;SDS011;44545;47.480;19.024;2024-02-21T11:08:09;1.55;;;0.90;;
58774;SDS011;44545;47.480;19.024;2024-02-21T11:11:12;3.62;;;1.17;;
58774;SDS011;44545;47.480;19.024;2024-02-21T11:14:37;1.73;;;0.95;;
58774;SDS011;44545;47.480;19.024;2024-02-21T11:17:42;4.32;;;1.35;;
58774;SDS011;44545;47.480;19.024;2024-02-21T11:21:02;4.22;;;1.50;;
58774;SDS011;44545;47.480;19.024;2024-02-21T11:24:07;4.43;;;1.33;;
58774;SDS011;44545;47.480;19.024;2024-02-21T11:27:09;4.97;;;1.20;;
58774;SDS011;44545;47.480;19.024;2024-02-21T11:30:14;4.72;;;1.00;;
58774;SDS011;44545;47.480;19.024;2024-02-21T11:33:18;5.10;;;1.52;;
58774;SDS011;44545;47.480;19.024;2024-02-21T11:36:26;3.42;;;1.10;;
58774;SDS011;44545;47.480;19.024;2024-02-21T11:39:29;3.35;;;1.30;;
58774;SDS011;44545;47.480;19.024;2024-02-21T11:42:31;5.25;;;1.50;;
58774;SDS011;44545;47.480;19.024;2024-02-21T11:45:34;5.07;;;1.50;;
58774;SDS011;44545;47.480;19.024;2024-02-21T11:48:36;4.12;;;1.30;;
58774;SDS011;44545;47.480;19.024;2024-02-21T11:51:39;2.33;;;0.90;;
58774;SDS011;44545;47.480;19.024;2024-02-21T11:54:41;1.85;;;0.95;;
58774;SDS011;44545;47.480;19.024;2024-02-21T11:57:44;4.40;;;1.17;;
58774;SDS011;44545;47.480;19.024;2024-02-21T12:00:47;6.97;;;1.33;;
58774;SDS011;44545;47.480;19.024;2024-02-21T12:03:50;2.40;;;1.30;;
58774;SDS011;44545;47.480;19.024;2024-02-21T12:06:53;3.50;;;1.35;;
58774;SDS011;44545;47.480;19.024;2024-02-21T12:09:58;4.93;;;1.30;;
58774;SDS011;44545;47.480;19.024;2024-02-21T12:13:06;2.35;;;1.17;;
58774;SDS011;44545;47.480;19.024;2024-02-21T12:16:12;1.92;;;1.00;;
58774;SDS011;44545;47.480;19.024;2024-02-21T12:19:17;2.78;;;1.30;;
58774;SDS011;44545;47.480;19.024;2024-02-21T12:22:21;1.73;;;0.80;;
58774;SDS011;44545;47.480;19.024;2024-02-21T12:25:24;2.92;;;1.17;;
58774;SDS011;44545;47.480;19.024;2024-02-21T12:28:28;2.30;;;1.12;;
58774;SDS011;44545;47.480;19.024;2024-02-21T12:31:31;1.52;;;0.90;;
58774;SDS011;44545;47.480;19.024;2024-02-21T12:34:34;6.12;;;1.35;;
58774;SDS011;44545;47.480;19.024;2024-02-21T12:37:53;2.83;;;0.70;;
58774;SDS011;44545;47.480;19.024;2024-02-21T12:40:56;4.85;;;1.25;;
58774;SDS011;44545;47.480;19.024;2024-02-21T12:44:02;2.67;;;0.73;;
58774;SDS011;44545;47.480;19.024;2024-02-21T12:47:06;2.42;;;0.85;;
58774;SDS011;44545;47.480;19.024;2024-02-21T12:50:10;1.35;;;0.75;;
58774;SDS011;44545;47.480;19.024;2024-02-21T12:53:14;10.30;;;1.33;;
58774;SDS011;44545;47.480;19.024;2024-02-21T12:56:27;1.40;;;0.65;;
58774;SDS011;44545;47.480;19.024;2024-02-21T12:59:29;1.90;;;0.88;;
58774;SDS011;44545;47.480;19.024;2024-02-21T13:02:32;3.20;;;0.70;;
58774;SDS011;44545;47.480;19.024;2024-02-21T13:05:35;1.20;;;0.90;;
58774;SDS011;44545;47.480;19.024;2024-02-21T13:08:40;5.43;;;1.02;;
58774;SDS011;44545;47.480;19.024;2024-02-21T13:11:43;1.45;;;1.05;;
58774;SDS011;44545;47.480;19.024;2024-02-21T13:14:48;1.67;;;0.68;;
58774;SDS011;44545;47.480;19.024;2024-02-21T13:17:50;8.50;;;1.35;;
58774;SDS011;44545;47.480;19.024;2024-02-21T13:20:53;6.32;;;1.42;;
58774;SDS011;44545;47.480;19.024;2024-02-21T13:23:55;1.87;;;1.00;;
58774;SDS011;44545;47.480;19.024;2024-02-21T13:26:58;0.95;;;0.77;;
58774;SDS011;44545;47.480;19.024;2024-02-21T13:30:01;1.05;;;0.80;;
58774;SDS011;44545;47.480;19.024;2024-02-21T13:36:10;3.22;;;1.50;;
58774;SDS011;44545;47.480;19.024;2024-02-21T13:39:12;2.70;;;0.95;;
58774;SDS011;44545;47.480;19.024;2024-02-21T13:42:17;1.10;;;0.70;;
58774;SDS011;44545;47.480;19.024;2024-02-21T13:45:21;9.52;;;1.62;;
58774;SDS011;44545;47.480;19.024;2024-02-21T13:48:23;1.98;;;0.98;;
58774;SDS011;44545;47.480;19.024;2024-02-21T13:51:27;7.62;;;1.10;;
58774;SDS011;44545;47.480;19.024;2024-02-21T13:54:29;1.37;;;0.80;;
58774;SDS011;44545;47.480;19.024;2024-02-21T13:57:32;5.62;;;1.08;;
58774;SDS011;44545;47.480;19.024;2024-02-21T14:00:35;2.15;;;0.85;;
58774;SDS011;44545;47.480;19.024;2024-02-21T14:03:38;2.83;;;1.70;;
58774;SDS011;44545;47.480;19.024;2024-02-21T14:06:40;1.98;;;0.95;;
58774;SDS011;44545;47.480;19.024;2024-02-21T14:09:46;1.80;;;0.68;;
58774;SDS011;44545;47.480;19.024;2024-02-21T14:12:50;2.08;;;0.85;;
58774;SDS011;44545;47.480;19.024;2024-02-21T14:15:52;1.08;;;0.90;;
58774;SDS011;44545;47.480;19.024;2024-02-21T14:18:55;4.03;;;1.48;;
58774;SDS011;44545;47.480;19.024;2024-02-21T14:21:57;1.83;;;1.25;;
58774;SDS011;44545;47.480;19.024;2024-02-21T14:25:00;2.30;;;0.93;;
58774;SDS011;44545;47.480;19.024;2024-02-21T14:28:03;8.13;;;1.37;;
58774;SDS011;44545;47.480;19.024;2024-02-21T14:31:05;0.55;;;0.45;;
58774;SDS011;44545;47.480;19.024;2024-02-21T14:34:11;2.22;;;1.17;;
58774;SDS011;44545;47.480;19.024;2024-02-21T14:37:14;1.67;;;0.60;;
58774;SDS011;44545;47.480;19.024;2024-02-21T14:40:17;4.18;;;1.20;;
58774;SDS011;44545;47.480;19.024;2024-02-21T14:43:21;0.88;;;0.77;;
58774;SDS011;44545;47.480;19.024;2024-02-21T14:46:24;3.22;;;1.17;;
58774;SDS011;44545;47.480;19.024;2024-02-21T14:49:27;3.33;;;0.60;;
58774;SDS011;44545;47.480;19.024;2024-02-21T14:52:31;0.62;;;0.43;;
58774;SDS011;44545;47.480;19.024;2024-02-21T14:55:35;1.92;;;0.93;;
58774;SDS011;44545;47.480;19.024;2024-02-21T14:58:37;0.70;;;0.62;;
58774;SDS011;44545;47.480;19.024;2024-02-21T15:01:40;1.17;;;0.80;;
58774;SDS011;44545;47.480;19.024;2024-02-21T15:04:43;1.12;;;0.82;;
58774;SDS011;44545;47.480;19.024;2024-02-21T15:07:46;0.77;;;0.60;;
58774;SDS011;44545;47.480;19.024;2024-02-21T15:10:48;2.47;;;0.55;;
58774;SDS011;44545;47.480;19.024;2024-02-21T15:13:55;2.45;;;0.70;;
58774;SDS011;44545;47.480;19.024;2024-02-21T15:16:58;1.13;;;0.80;;
58774;SDS011;44545;47.480;19.024;2024-02-21T15:20:00;2.03;;;0.80;;
58774;SDS011;44545;47.480;19.024;2024-02-21T15:23:03;3.70;;;0.52;;
58774;SDS011;44545;47.480;19.024;2024-02-21T15:26:07;1.17;;;0.70;;
58774;SDS011;44545;47.480;19.024;2024-02-21T15:29:09;3.28;;;0.90;;
58774;SDS011;44545;47.480;19.024;2024-02-21T15:32:12;1.65;;;0.68;;
58774;SDS011;44545;47.480;19.024;2024-02-21T15:35:14;1.83;;;0.60;;
58774;SDS011;44545;47.480;19.024;2024-02-21T15:38:22;1.00;;;0.55;;
58774;SDS011;44545;47.480;19.024;2024-02-21T15:41:24;5.00;;;0.70;;
58774;SDS011;44545;47.480;19.024;2024-02-21T15:44:26;2.78;;;0.62;;
58774;SDS011;44545;47.480;19.024;2024-02-21T15:47:29;2.50;;;0.70;;
58774;SDS011;44545;47.480;19.024;2024-02-21T15:50:31;1.05;;;0.95;;
58774;SDS011;44545;47.480;19.024;2024-02-21T15:53:34;0.98;;;0.82;;
58774;SDS011;44545;47.480;19.024;2024-02-21T15:56:36;1.10;;;0.57;;
58774;SDS011;44545;47.480;19.024;2024-02-21T15:59:38;3.70;;;0.80;;
58774;SDS011;44545;47.480;19.024;2024-02-21T16:02:41;2.87;;;0.55;;
58774;SDS011;44545;47.480;19.024;2024-02-21T16:05:44;0.90;;;0.70;;
58774;SDS011;44545;47.480;19.024;2024-02-21T16:08:46;0.82;;;0.50;;
58774;SDS011;44545;47.480;19.024;2024-02-21T16:11:52;1.60;;;1.00;;
58774;SDS011;44545;47.480;19.024;2024-02-21T16:14:54;1.95;;;1.27;;
58774;SDS011;44545;47.480;19.024;2024-02-21T16:17:56;6.12;;;0.85;;
58774;SDS011;44545;47.480;19.024;2024-02-21T16:20:59;3.30;;;0.82;;
58774;SDS011;44545;47.480;19.024;2024-02-21T16:24:01;5.28;;;1.75;;
58774;SDS011;44545;47.480;19.024;2024-02-21T16:27:04;1.98;;;1.08;;
58774;SDS011;44545;47.480;19.024;2024-02-21T16:30:11;8.52;;;0.90;;
58774;SDS011;44545;47.480;19.024;2024-02-21T16:33:14;3.20;;;1.30;;
58774;SDS011;44545;47.480;19.024;2024-02-21T16:36:23;3.70;;;2.22;;
58774;SDS011;44545;47.480;19.024;2024-02-21T16:39:26;3.00;;;2.05;;
58774;SDS011;44545;47.480;19.024;2024-02-21T16:42:28;2.92;;;2.03;;
58774;SDS011;44545;47.480;19.024;2024-02-21T16:45:31;4.47;;;2.67;;
58774;SDS011;44545;47.480;19.024;2024-02-21T16:48:33;3.28;;;1.77;;
58774;SDS011;44545;47.480;19.024;2024-02-21T16:51:36;6.22;;;2.28;;
58774;SDS011;44545;47.480;19.024;2024-02-21T16:54:38;2.97;;;1.83;;
58774;SDS011;44545;47.480;19.024;2024-02-21T16:57:41;3.22;;;2.50;;
58774;SDS011;44545;47.480;19.024;2024-02-21T17:00:45;1.70;;;1.15;;
58774;SDS011;44545;47.480;19.024;2024-02-21T17:03:48;4.35;;;1.73;;
58774;SDS011;44545;47.480;19.024;2024-02-21T17:06:51;1.75;;;1.33;;
58774;SDS011;44545;47.480;19.024;2024-02-21T17:09:54;5.12;;;2.30;;
58774;SDS011;44545;47.480;19.024;2024-02-21T17:12:56;6.35;;;1.58;;
58774;SDS011;44545;47.480;19.024;2024-02-21T17:15:58;5.30;;;2.05;;
58774;SDS011;44545;47.480;19.024;2024-02-21T17:19:01;5.10;;;1.83;;
58774;SDS011;44545;47.480;19.024;2024-02-21T17:22:03;3.97;;;2.17;;
58774;SDS011;44545;47.480;19.024;2024-02-21T17:25:06;8.63;;;1.67;;
58774;SDS011;44545;47.480;19.024;2024-02-21T17:28:12;5.30;;;2.23;;
58774;SDS011;44545;47.480;19.024;2024-02-21T17:31:14;2.33;;;1.10;;
58774;SDS011;44545;47.480;19.024;2024-02-21T17:34:16;6.00;;;3.05;;
58774;SDS011;44545;47.480;19.024;2024-02-21T17:37:19;5.78;;;2.03;;
58774;SDS011;44545;47.480;19.024;2024-02-21T17:40:21;4.37;;;2.65;;
58774;SDS011;44545;47.480;19.024;2024-02-21T17:43:23;4.10;;;2.58;;
58774;SDS011;44545;47.480;19.024;2024-02-21T17:46:26;5.37;;;2.67;;
58774;SDS011;44545;47.480;19.024;2024-02-21T17:49:28;8.88;;;3.42;;
58774;SDS011;44545;47.480;19.024;2024-02-21T17:52:31;5.82;;;1.85;;
58774;SDS011;44545;47.480;19.024;2024-02-21T17:55:33;10.48;;;3.00;;
58774;SDS011;44545;47.480;19.024;2024-02-21T17:58:36;1.40;;;0.90;;
58774;SDS011;44545;47.480;19.024;2024-02-21T18:01:38;3.72;;;1.48;;
58774;SDS011;44545;47.480;19.024;2024-02-21T18:04:41;3.22;;;1.77;;
58774;SDS011;44545;47.480;19.024;2024-02-21T18:07:43;5.95;;;1.75;;
58774;SDS011;44545;47.480;19.024;2024-02-21T18:10:46;4.95;;;2.15;;
58774;SDS011;44545;47.480;19.024;2024-02-21T18:13:48;5.60;;;2.72;;
58774;SDS011;44545;47.480;19.024;2024-02-21T18:16:51;5.30;;;2.12;;
58774;SDS011;44545;47.480;19.024;2024-02-21T18:19:53;5.68;;;2.80;;
58774;SDS011;44545;47.480;19.024;2024-02-21T18:22:55;5.03;;;2.50;;
58774;SDS011;44545;47.480;19.024;2024-02-21T18:25:58;6.57;;;2.80;;
58774;SDS011;44545;47.480;19.024;2024-02-21T18:29:02;2.87;;;2.47;;
58774;SDS011;44545;47.480;19.024;2024-02-21T18:32:04;5.90;;;2.47;;
58774;SDS011;44545;47.480;19.024;2024-02-21T18:35:07;3.85;;;2.25;;
58774;SDS011;44545;47.480;19.024;2024-02-21T18:38:09;10.82;;;3.60;;
58774;SDS011;44545;47.480;19.024;2024-02-21T18:41:12;12.50;;;5.25;;
58774;SDS011;44545;47.480;19.024;2024-02-21T18:44:14;10.23;;;4.53;;
58774;SDS011;44545;47.480;19.024;2024-02-21T18:47:17;8.55;;;3.72;;
58774;SDS011;44545;47.480;19.024;2024-02-21T18:50:19;6.20;;;2.95;;
58774;SDS011;44545;47.480;19.024;2024-02-21T18:53:22;10.52;;;3.30;;
58774;SDS011;44545;47.480;19.024;2024-02-21T18:56:24;3.22;;;2.22;;
58774;SDS011;44545;47.480;19.024;2024-02-21T18:59:30;5.45;;;2.78;;
58774;SDS011;44545;47.480;19.024;2024-02-21T19:02:32;6.75;;;2.75;;
58774;SDS011;44545;47.480;19.024;2024-02-21T19:05:35;4.78;;;1.83;;
58774;SDS011;44545;47.480;19.024;2024-02-21T19:08:37;6.12;;;2.45;;
58774;SDS011;44545;47.480;19.024;2024-02-21T19:11:40;5.20;;;2.30;;
58774;SDS011;44545;47.480;19.024;2024-02-21T19:14:42;5.93;;;2.78;;
58774;SDS011;44545;47.480;19.024;2024-02-21T19:17:44;5.30;;;2.62;;
58774;SDS011;44545;47.480;19.024;2024-02-21T19:20:47;4.80;;;2.45;;
58774;SDS011;44545;47.480;19.024;2024-02-21T19:23:49;5.85;;;3.17;;
58774;SDS011;44545;47.480;19.024;2024-02-21T19:26:51;6.55;;;2.55;;
58774;SDS011;44545;47.480;19.024;2024-02-21T19:29:54;7.65;;;3.42;;
58774;SDS011;44545;47.480;19.024;2024-02-21T19:32:56;3.12;;;2.00;;
58774;SDS011;44545;47.480;19.024;2024-02-21T19:35:59;4.50;;;2.85;;
58774;SDS011;44545;47.480;19.024;2024-02-21T19:39:02;5.87;;;2.67;;
58774;SDS011;44545;47.480;19.024;2024-02-21T19:42:04;3.65;;;3.05;;
58774;SDS011;44545;47.480;19.024;2024-02-21T19:45:07;6.57;;;2.92;;
58774;SDS011;44545;47.480;19.024;2024-02-21T19:48:10;10.57;;;3.87;;
58774;SDS011;44545;47.480;19.024;2024-02-21T19:51:14;14.20;;;4.60;;
58774;SDS011;44545;47.480;19.024;2024-02-21T19:54:16;11.10;;;3.75;;
58774;SDS011;44545;47.480;19.024;2024-02-21T19:57:26;4.68;;;3.00;;
58774;SDS011;44545;47.480;19.024;2024-02-21T20:00:28;6.28;;;2.87;;
58774;SDS011;44545;47.480;19.024;2024-02-21T20:03:31;7.85;;;3.47;;
58774;SDS011;44545;47.480;19.024;2024-02-21T20:06:33;9.70;;;4.78;;
58774;SDS011;44545;47.480;19.024;2024-02-21T20:09:36;3.15;;;2.70;;
58774;SDS011;44545;47.480;19.024;2024-02-21T20:12:38;4.57;;;3.70;;
58774;SDS011;44545;47.480;19.024;2024-02-21T20:15:42;4.55;;;2.37;;
58774;SDS011;44545;47.480;19.024;2024-02-21T20:18:44;8.95;;;4.95;;
58774;SDS011;44545;47.480;19.024;2024-02-21T20:21:47;8.27;;;4.05;;
58774;SDS011;44545;47.480;19.024;2024-02-21T20:24:51;8.75;;;2.67;;
58774;SDS011;44545;47.480;19.024;2024-02-21T20:27:53;6.40;;;3.33;;
58774;SDS011;44545;47.480;19.024;2024-02-21T20:30:55;6.18;;;3.42;;
58774;SDS011;44545;47.480;19.024;2024-02-21T20:33:58;12.20;;;5.05;;
58774;SDS011;44545;47.480;19.024;2024-02-21T20:37:00;6.82;;;4.65;;
58774;SDS011;44545;47.480;19.024;2024-02-21T20:40:03;5.90;;;3.60;;
58774;SDS011;44545;47.480;19.024;2024-02-21T20:43:08;7.93;;;4.25;;
58774;SDS011;44545;47.480;19.024;2024-02-21T20:46:12;7.40;;;3.80;;
58774;SDS011;44545;47.480;19.024;2024-02-21T20:49:14;7.40;;;4.55;;
58774;SDS011;44545;47.480;19.024;2024-02-21T20:52:17;6.75;;;3.70;;
58774;SDS011;44545;47.480;19.024;2024-02-21T20:55:19;8.88;;;3.85;;
58774;SDS011;44545;47.480;19.024;2024-02-21T20:58:27;7.87;;;3.90;;
58774;SDS011;44545;47.480;19.024;2024-02-21T21:01:29;8.85;;;4.35;;
58774;SDS011;44545;47.480;19.024;2024-02-21T21:04:32;5.60;;;3.10;;
58774;SDS011;44545;47.480;19.024;2024-02-21T21:07:34;6.37;;;3.53;;
58774;SDS011;44545;47.480;19.024;2024-02-21T21:10:38;6.05;;;3.03;;
58774;SDS011;44545;47.480;19.024;2024-02-21T21:13:40;6.15;;;2.90;;
58774;SDS011;44545;47.480;19.024;2024-02-21T21:16:43;8.20;;;4.65;;
58774;SDS011;44545;47.480;19.024;2024-02-21T21:19:45;7.93;;;3.72;;
58774;SDS011;44545;47.480;19.024;2024-02-21T21:22:48;18.48;;;5.25;;
58774;SDS011;44545;47.480;19.024;2024-02-21T21:25:51;8.50;;;4.35;;
58774;SDS011;44545;47.480;19.024;2024-02-21T21:28:54;8.32;;;3.87;;
58774;SDS011;44545;47.480;19.024;2024-02-21T21:31:58;6.28;;;4.40;;
58774;SDS011;44545;47.480;19.024;2024-02-21T21:35:01;11.20;;;4.30;;
58774;SDS011;44545;47.480;19.024;2024-02-21T21:38:03;6.85;;;3.95;;
58774;SDS011;44545;47.480;19.024;2024-02-21T21:41:08;8.05;;;3.47;;
58774;SDS011;44545;47.480;19.024;2024-02-21T21:44:10;7.72;;;3.85;;
58774;SDS011;44545;47.480;19.024;2024-02-21T21:47:13;7.12;;;3.25;;
58774;SDS011;44545;47.480;19.024;2024-02-21T21:50:16;6.03;;;3.35;;
58774;SDS011;44545;47.480;19.024;2024-02-21T21:53:18;9.35;;;2.97;;
58774;SDS011;44545;47.480;19.024;2024-02-21T21:56:20;6.65;;;3.37;;
58774;SDS011;44545;47.480;19.024;2024-02-21T21:59:23;10.82;;;4.47;;
58774;SDS011;44545;47.480;19.024;2024-02-21T22:02:25;8.52;;;4.12;;
58774;SDS011;44545;47.480;19.024;2024-02-21T22:05:29;9.52;;;4.45;;
58774;SDS011;44545;47.480;19.024;2024-02-21T22:08:31;7.00;;;3.40;;
58774;SDS011;44545;47.480;19.024;2024-02-21T22:11:34;7.07;;;4.10;;
58774;SDS011;44545;47.480;19.024;2024-02-21T22:14:36;5.62;;;3.62;;
58774;SDS011;44545;47.480;19.024;2024-02-21T22:17:39;9.50;;;3.67;;
58774;SDS011;44545;47.480;19.024;2024-02-21T22:20:42;11.48;;;3.55;;
58774;SDS011;44545;47.480;19.024;2024-02-21T22:23:44;10.15;;;3.90;;
58774;SDS011;44545;47.480;19.024;2024-02-21T22:26:48;22.33;;;4.75;;
58774;SDS011;44545;47.480;19.024;2024-02-21T22:29:53;9.43;;;5.05;;
58774;SDS011;44545;47.480;19.024;2024-02-21T22:32:57;4.35;;;3.40;;
58774;SDS011;44545;47.480;19.024;2024-02-21T22:35:59;12.02;;;2.92;;
58774;SDS011;44545;47.480;19.024;2024-02-21T22:39:02;10.95;;;3.67;;